createdAt,value
2017-02-23T00:00:22.633Z,0
2017-02-23T00:01:32.830Z,0
2017-02-23T00:02:42.141Z,0
2017-02-23T00:03:51.960Z,0
2017-02-23T00:05:01.321Z,0
2017-02-23T00:06:10.649Z,0
2017-02-23T00:07:20.395Z,0
2017-02-23T00:08:29.718Z,0
2017-02-23T00:09:39.537Z,0
2017-02-23T00:10:48.879Z,0
2017-02-23T00:11:59.096Z,0
2017-02-23T00:13:08.455Z,0
2017-02-23T00:14:19.116Z,0
2017-02-23T00:15:29.371Z,0
2017-02-23T00:16:38.704Z,0
2017-02-23T00:17:48.021Z,0
2017-02-23T00:18:57.810Z,0
2017-02-23T00:20:07.139Z,0
2017-02-23T00:21:16.505Z,0
2017-02-23T00:22:25.825Z,0
2017-02-23T00:23:35.143Z,0
2017-02-23T00:24:44.462Z,0
2017-02-23T00:25:54.221Z,0
2017-02-23T00:27:04.477Z,0
2017-02-23T00:28:14.241Z,0
2017-02-23T00:29:24.046Z,0
2017-02-23T00:30:33.799Z,0
2017-02-23T00:31:43.570Z,0
2017-02-23T00:32:52.951Z,0
2017-02-23T00:34:02.264Z,0
2017-02-23T00:35:12.456Z,0
2017-02-23T00:36:22.221Z,0
2017-02-23T00:37:31.984Z,0
2017-02-23T00:38:41.365Z,0
2017-02-23T00:39:50.698Z,0
2017-02-23T00:41:00.035Z,0
2017-02-23T00:42:09.356Z,0
2017-02-23T00:43:19.577Z,0
2017-02-23T00:44:29.430Z,0
2017-02-23T00:45:39.191Z,0
2017-02-23T00:46:48.500Z,0
2017-02-23T00:47:57.859Z,0
2017-02-23T00:49:07.186Z,0
2017-02-23T00:50:16.548Z,0
2017-02-23T00:51:25.873Z,0
2017-02-23T00:52:35.181Z,0
2017-02-23T00:53:44.503Z,0
2017-02-23T00:54:53.816Z,0
2017-02-23T00:56:03.209Z,0
2017-02-23T00:57:13.430Z,0
2017-02-23T00:58:22.747Z,0
2017-02-23T00:59:32.504Z,0
2017-02-23T01:00:41.817Z,0
2017-02-23T01:01:51.210Z,0
2017-02-23T01:03:00.979Z,0
2017-02-23T01:04:10.312Z,0
2017-02-23T01:05:19.629Z,0
2017-02-23T01:06:29.394Z,0
2017-02-23T01:07:39.200Z,0
2017-02-23T01:08:48.960Z,0
2017-02-23T01:09:58.274Z,0
2017-02-23T01:11:08.039Z,0
2017-02-23T01:12:17.347Z,0
2017-02-23T01:13:26.733Z,0
2017-02-23T01:14:36.067Z,0
2017-02-23T01:15:46.279Z,0
2017-02-23T01:16:55.597Z,0
2017-02-23T01:18:05.358Z,0
2017-02-23T01:19:14.723Z,0
2017-02-23T01:20:24.048Z,0
2017-02-23T01:21:33.397Z,0
2017-02-23T01:22:42.706Z,0
2017-02-23T01:23:52.011Z,0
2017-02-23T01:25:01.812Z,0
2017-02-23T01:26:11.151Z,0
2017-02-23T01:27:20.907Z,0
2017-02-23T01:28:30.224Z,0
2017-02-23T01:29:39.533Z,0
2017-02-23T01:30:49.354Z,0
2017-02-23T01:31:58.679Z,0
2017-02-23T01:33:08.432Z,0
2017-02-23T01:34:17.756Z,0
2017-02-23T01:35:27.523Z,0
2017-02-23T01:36:38.240Z,0
2017-02-23T01:37:47.593Z,0
2017-02-23T01:38:56.906Z,0
2017-02-23T01:40:06.240Z,0
2017-02-23T01:41:15.991Z,0
2017-02-23T01:42:25.802Z,0
2017-02-23T01:43:35.567Z,0
2017-02-23T01:44:45.768Z,0
2017-02-23T01:45:55.089Z,0
2017-02-23T01:47:04.871Z,0
2017-02-23T01:48:14.227Z,0
2017-02-23T01:49:23.552Z,0
2017-02-23T01:50:32.883Z,0
2017-02-23T01:51:42.195Z,0
2017-02-23T01:52:51.525Z,0
2017-02-23T01:54:00.894Z,0
2017-02-23T01:55:10.227Z,0
2017-02-23T01:56:19.546Z,0
2017-02-23T01:57:29.760Z,0
2017-02-23T01:58:39.989Z,0
2017-02-23T01:59:49.816Z,0
2017-02-23T02:00:59.137Z,0
2017-02-23T02:02:08.922Z,0
2017-02-23T02:03:18.231Z,0
2017-02-23T02:04:27.556Z,0
2017-02-23T02:05:36.922Z,0
2017-02-23T02:06:46.235Z,0
2017-02-23T02:07:55.557Z,0
2017-02-23T02:09:04.900Z,0
2017-02-23T02:10:14.663Z,0
2017-02-23T02:11:24.076Z,0
2017-02-23T02:12:33.397Z,0
2017-02-23T02:13:43.590Z,0
2017-02-23T02:14:53.367Z,0
2017-02-23T02:16:02.681Z,0
2017-02-23T02:17:12.060Z,0
2017-02-23T02:18:22.272Z,0
2017-02-23T02:19:31.603Z,0
2017-02-23T02:20:41.798Z,0
2017-02-23T02:21:51.106Z,0
2017-02-23T02:23:00.572Z,0
2017-02-23T02:24:10.325Z,0
2017-02-23T02:25:20.551Z,0
2017-02-23T02:26:30.342Z,0
2017-02-23T02:27:39.657Z,0
2017-02-23T02:28:50.890Z,0
2017-02-23T02:30:00.206Z,0
2017-02-23T02:31:09.985Z,0
2017-02-23T02:32:20.190Z,0
2017-02-23T02:33:29.550Z,0
2017-02-23T02:34:39.789Z,0
2017-02-23T02:35:49.550Z,0
2017-02-23T02:36:58.865Z,0
2017-02-23T02:38:08.640Z,0
2017-02-23T02:39:18.841Z,0
2017-02-23T02:40:28.211Z,0
2017-02-23T02:41:37.550Z,0
2017-02-23T02:42:47.765Z,0
2017-02-23T02:43:57.094Z,0
2017-02-23T02:45:06.843Z,0
2017-02-23T02:46:16.207Z,0
2017-02-23T02:47:26.400Z,0
2017-02-23T02:48:35.719Z,0
2017-02-23T02:49:45.064Z,0
2017-02-23T02:50:55.264Z,0
2017-02-23T02:52:05.079Z,0
2017-02-23T02:53:15.304Z,0
2017-02-23T02:54:24.634Z,0
2017-02-23T02:55:33.959Z,0
2017-02-23T02:56:43.284Z,0
2017-02-23T02:57:53.085Z,0
2017-02-23T02:59:02.434Z,0
2017-02-23T03:00:11.755Z,0
2017-02-23T03:01:21.113Z,0
2017-02-23T03:02:30.438Z,0
2017-02-23T03:03:39.831Z,0
2017-02-23T03:04:49.183Z,0
2017-02-23T03:05:58.990Z,0
2017-02-23T03:07:08.310Z,0
2017-02-23T03:08:18.068Z,0
2017-02-23T03:09:27.869Z,0
2017-02-23T03:10:37.631Z,0
2017-02-23T03:11:47.411Z,0
2017-02-23T03:12:57.173Z,0
2017-02-23T03:14:06.950Z,0
2017-02-23T03:15:16.771Z,0
2017-02-23T03:16:26.533Z,0
2017-02-23T03:17:35.870Z,0
2017-02-23T03:18:45.631Z,0
2017-02-23T03:19:55.396Z,0
2017-02-23T03:21:04.781Z,0
2017-02-23T03:22:14.099Z,0
2017-02-23T03:23:23.419Z,0
2017-02-23T03:24:33.193Z,0
2017-02-23T03:25:42.514Z,0
2017-02-23T03:26:52.355Z,0
2017-02-23T03:28:01.661Z,0
2017-02-23T03:29:11.882Z,0
2017-02-23T03:30:22.099Z,0
2017-02-23T03:31:31.428Z,0
2017-02-23T03:32:41.229Z,0
2017-02-23T03:33:51.451Z,0
2017-02-23T03:35:00.788Z,0
2017-02-23T03:36:10.145Z,0
2017-02-23T03:37:19.902Z,0
2017-02-23T03:38:29.279Z,0
2017-02-23T03:39:38.597Z,0
2017-02-23T03:40:47.918Z,0
2017-02-23T03:41:57.235Z,0
2017-02-23T03:43:06.996Z,0
2017-02-23T03:44:16.417Z,0
2017-02-23T03:45:25.795Z,0
2017-02-23T03:46:35.132Z,0
2017-02-23T03:47:44.452Z,0
2017-02-23T03:48:54.646Z,0
2017-02-23T03:50:04.027Z,0
2017-02-23T03:51:13.832Z,0
2017-02-23T03:52:23.613Z,0
2017-02-23T03:53:32.935Z,0
2017-02-23T03:54:43.135Z,0
2017-02-23T03:55:52.501Z,0
2017-02-23T03:57:02.255Z,0
2017-02-23T03:58:12.023Z,0
2017-02-23T03:59:21.358Z,0
2017-02-23T04:00:31.147Z,0
2017-02-23T04:01:40.676Z,0
2017-02-23T04:02:49.993Z,0
2017-02-23T04:03:59.761Z,0
2017-02-23T04:05:09.988Z,0
2017-02-23T04:06:19.769Z,0
2017-02-23T04:07:29.131Z,0
2017-02-23T04:08:38.907Z,0
2017-02-23T04:09:48.683Z,0
2017-02-23T04:10:58.430Z,0
2017-02-23T04:12:07.743Z,0
2017-02-23T04:13:17.120Z,0
2017-02-23T04:14:26.446Z,0
2017-02-23T04:15:35.776Z,0
2017-02-23T04:16:45.565Z,0
2017-02-23T04:17:54.926Z,0
2017-02-23T04:19:04.299Z,0
2017-02-23T04:20:14.088Z,0
2017-02-23T04:21:23.863Z,0
2017-02-23T04:22:33.182Z,0
2017-02-23T04:23:42.520Z,0
2017-02-23T04:24:51.901Z,0
2017-02-23T04:26:01.250Z,0
2017-02-23T04:27:10.571Z,0
2017-02-23T04:28:19.884Z,0
2017-02-23T04:29:29.193Z,0
2017-02-23T04:30:39.013Z,0
2017-02-23T04:31:48.784Z,0
2017-02-23T04:32:58.109Z,0
2017-02-23T04:34:07.418Z,0
2017-02-23T04:35:16.751Z,0
2017-02-23T04:36:26.141Z,0
2017-02-23T04:37:35.481Z,0
2017-02-23T04:38:44.839Z,0
2017-02-23T04:39:54.152Z,0
2017-02-23T04:41:03.906Z,0
2017-02-23T04:42:13.266Z,0
2017-02-23T04:43:22.580Z,0
2017-02-23T04:44:31.885Z,0
2017-02-23T04:45:41.202Z,0
2017-02-23T04:46:50.971Z,0
2017-02-23T04:48:00.337Z,0
2017-02-23T04:49:09.654Z,0
2017-02-23T04:50:19.868Z,0
2017-02-23T04:51:29.186Z,0
2017-02-23T04:52:38.489Z,0
2017-02-23T04:53:47.854Z,0
2017-02-23T04:54:57.616Z,0
2017-02-23T04:56:06.931Z,0
2017-02-23T04:57:17.584Z,0
2017-02-23T04:58:28.231Z,0
2017-02-23T04:59:37.916Z,0
2017-02-23T05:00:47.682Z,0
2017-02-23T05:01:57.435Z,0
2017-02-23T05:03:07.208Z,0
2017-02-23T05:04:16.523Z,0
2017-02-23T05:05:25.894Z,0
2017-02-23T05:06:35.207Z,0
2017-02-23T05:07:44.568Z,0
2017-02-23T05:08:53.901Z,0
2017-02-23T05:10:03.251Z,0
2017-02-23T05:11:12.620Z,0
2017-02-23T05:12:22.401Z,0
2017-02-23T05:13:32.220Z,0
2017-02-23T05:14:41.538Z,0
2017-02-23T05:15:51.748Z,0
2017-02-23T05:17:01.562Z,0
2017-02-23T05:18:10.908Z,0
2017-02-23T05:19:20.676Z,0
2017-02-23T05:20:30.441Z,0
2017-02-23T05:21:39.751Z,0
2017-02-23T05:22:50.023Z,0
2017-02-23T05:24:00.233Z,0
2017-02-23T05:25:10.445Z,0
2017-02-23T05:26:19.768Z,0
2017-02-23T05:27:29.104Z,0
2017-02-23T05:28:38.922Z,0
2017-02-23T05:29:48.257Z,0
2017-02-23T05:30:58.048Z,0
2017-02-23T05:32:07.833Z,0
2017-02-23T05:33:17.150Z,0
2017-02-23T05:34:26.976Z,0
2017-02-23T05:35:36.760Z,0
2017-02-23T05:36:46.554Z,0
2017-02-23T05:37:56.340Z,0
2017-02-23T05:39:05.654Z,0
2017-02-23T05:40:15.018Z,0
2017-02-23T05:41:24.339Z,0
2017-02-23T05:42:33.648Z,0
2017-02-23T05:43:42.969Z,0
2017-02-23T05:44:52.286Z,0
2017-02-23T05:46:01.652Z,0
2017-02-23T05:47:10.989Z,0
2017-02-23T05:48:21.190Z,0
2017-02-23T05:49:30.507Z,0
2017-02-23T05:50:39.831Z,0
2017-02-23T05:51:49.630Z,0
2017-02-23T05:52:58.971Z,0
2017-02-23T05:54:08.732Z,0
2017-02-23T05:55:18.078Z,0
2017-02-23T05:56:27.417Z,0
2017-02-23T05:57:37.242Z,0
2017-02-23T05:58:49.243Z,0
2017-02-23T06:00:01.772Z,0
2017-02-23T06:01:14.122Z,0
2017-02-23T06:02:23.613Z,0
2017-02-23T06:03:32.986Z,0
2017-02-23T06:04:42.311Z,0
2017-02-23T06:05:51.656Z,0
2017-02-23T06:07:01.006Z,0
2017-02-23T06:08:10.763Z,0
2017-02-23T06:09:20.130Z,0
2017-02-23T06:10:29.444Z,0
2017-02-23T06:11:39.201Z,0
2017-02-23T06:12:48.979Z,0
2017-02-23T06:13:59.193Z,0
2017-02-23T06:15:08.593Z,0
2017-02-23T06:16:18.799Z,0
2017-02-23T06:17:29.012Z,0
2017-02-23T06:18:38.373Z,0
2017-02-23T06:19:48.133Z,0
2017-02-23T06:20:58.403Z,0
2017-02-23T06:22:08.167Z,0
2017-02-23T06:23:18.390Z,0
2017-02-23T06:24:27.719Z,0
2017-02-23T06:25:37.033Z,0
2017-02-23T06:26:46.941Z,0
2017-02-23T06:27:56.719Z,0
2017-02-23T06:29:06.508Z,0
2017-02-23T06:30:15.824Z,0
2017-02-23T06:31:25.574Z,0
2017-02-23T06:32:34.952Z,0
2017-02-23T06:33:44.739Z,0
2017-02-23T06:34:54.066Z,0
2017-02-23T06:36:03.403Z,0
2017-02-23T06:37:12.736Z,0
2017-02-23T06:38:23.447Z,0
2017-02-23T06:39:32.794Z,0
2017-02-23T06:40:42.104Z,0
2017-02-23T06:41:51.421Z,0
2017-02-23T06:43:01.198Z,0
2017-02-23T06:44:11.019Z,0
2017-02-23T06:45:20.803Z,0
2017-02-23T06:46:30.562Z,0
2017-02-23T06:47:39.891Z,0
2017-02-23T06:48:49.220Z,0
2017-02-23T06:49:59.022Z,0
2017-02-23T06:51:08.774Z,0
2017-02-23T06:52:18.086Z,5
2017-02-23T06:53:27.885Z,0
2017-02-23T06:54:38.108Z,5
2017-02-23T06:55:48.390Z,5
2017-02-23T06:56:58.152Z,5
2017-02-23T06:58:07.920Z,5
2017-02-23T06:59:17.238Z,5
2017-02-23T07:00:27.019Z,5
2017-02-23T07:01:36.425Z,5
2017-02-23T07:02:46.634Z,5
2017-02-23T07:03:56.383Z,5
2017-02-23T07:05:05.708Z,5
2017-02-23T07:06:15.072Z,5
2017-02-23T07:07:25.326Z,5
2017-02-23T07:08:34.639Z,5
2017-02-23T07:09:43.977Z,5
2017-02-23T07:10:53.734Z,5
2017-02-23T07:12:03.064Z,5
2017-02-23T07:13:12.441Z,5
2017-02-23T07:14:22.637Z,10
2017-02-23T07:15:32.386Z,10
2017-02-23T07:16:41.702Z,10
2017-02-23T07:17:51.468Z,10
2017-02-23T07:19:00.837Z,10
2017-02-23T07:20:10.595Z,10
2017-02-23T07:21:20.392Z,10
2017-02-23T07:22:30.173Z,10
2017-02-23T07:23:40.366Z,10
2017-02-23T07:24:50.627Z,5
2017-02-23T07:26:00.397Z,5
2017-02-23T07:27:09.720Z,5
2017-02-23T07:28:19.523Z,10
2017-02-23T07:29:28.851Z,10
2017-02-23T07:30:38.229Z,10
2017-02-23T07:31:48.426Z,10
2017-02-23T07:32:58.187Z,10
2017-02-23T07:34:07.948Z,10
2017-02-23T07:35:17.281Z,10
2017-02-23T07:36:26.667Z,10
2017-02-23T07:37:35.984Z,10
2017-02-23T07:38:45.328Z,10
2017-02-23T07:39:54.666Z,10
2017-02-23T07:41:04.435Z,10
2017-02-23T07:42:13.816Z,10
2017-02-23T07:43:23.581Z,10
2017-02-23T07:44:32.911Z,10
2017-02-23T07:45:42.224Z,5
2017-02-23T07:46:52.865Z,5
2017-02-23T07:48:02.254Z,10
2017-02-23T07:49:12.478Z,5
2017-02-23T07:50:22.259Z,5
2017-02-23T07:51:32.017Z,10
2017-02-23T07:52:41.339Z,5
2017-02-23T07:53:50.708Z,5
2017-02-23T07:55:00.033Z,5
2017-02-23T07:56:09.367Z,5
2017-02-23T07:57:19.126Z,5
2017-02-23T07:58:28.885Z,5
2017-02-23T07:59:38.277Z,5
2017-02-23T08:00:48.483Z,5
2017-02-23T08:01:58.709Z,5
2017-02-23T08:03:08.480Z,5
2017-02-23T08:04:18.251Z,5
2017-02-23T08:05:27.656Z,5
2017-02-23T08:06:36.965Z,5
2017-02-23T08:07:46.742Z,10
2017-02-23T08:08:56.074Z,10
2017-02-23T08:10:05.873Z,10
2017-02-23T08:11:16.138Z,10
2017-02-23T08:12:25.915Z,10
2017-02-23T08:13:35.267Z,5
2017-02-23T08:14:45.026Z,5
2017-02-23T08:15:55.251Z,5
2017-02-23T08:17:05.208Z,5
2017-02-23T08:18:14.543Z,10
2017-02-23T08:19:23.854Z,10
2017-02-23T08:20:33.626Z,10
2017-02-23T08:21:42.944Z,15
2017-02-23T08:22:52.334Z,20
2017-02-23T08:24:01.651Z,20
2017-02-23T08:25:10.972Z,25
2017-02-23T08:26:20.754Z,25
2017-02-23T08:27:30.115Z,25
2017-02-23T08:28:39.908Z,25
2017-02-23T08:29:49.672Z,25
2017-02-23T08:30:59.022Z,25
2017-02-23T08:32:08.379Z,25
2017-02-23T08:33:17.713Z,30
2017-02-23T08:34:27.697Z,30
2017-02-23T08:35:37.021Z,30
2017-02-23T08:36:46.348Z,35
2017-02-23T08:37:55.665Z,30
2017-02-23T08:39:05.440Z,40
2017-02-23T08:40:15.276Z,35
2017-02-23T08:41:25.036Z,25
2017-02-23T08:42:34.346Z,30
2017-02-23T08:43:43.696Z,25
2017-02-23T08:44:53.040Z,30
2017-02-23T08:46:03.285Z,35
2017-02-23T08:47:12.594Z,35
2017-02-23T08:48:21.899Z,30
2017-02-23T08:49:32.143Z,45
2017-02-23T08:50:42.357Z,45
2017-02-23T08:51:51.727Z,50
2017-02-23T08:53:01.052Z,55
2017-02-23T08:54:10.820Z,45
2017-02-23T08:55:20.574Z,50
2017-02-23T08:56:30.783Z,50
2017-02-23T08:57:40.597Z,45
2017-02-23T08:58:50.389Z,50
2017-02-23T08:59:59.712Z,50
2017-02-23T09:01:09.484Z,55
2017-02-23T09:02:18.857Z,60
2017-02-23T09:03:28.670Z,40
2017-02-23T09:04:38.462Z,40
2017-02-23T09:05:48.240Z,45
2017-02-23T09:06:57.566Z,40
2017-02-23T09:08:07.325Z,35
2017-02-23T09:09:16.700Z,25
2017-02-23T09:10:26.465Z,25
2017-02-23T09:11:36.222Z,35
2017-02-23T09:12:45.555Z,35
2017-02-23T09:13:54.879Z,35
2017-02-23T09:15:04.261Z,35
2017-02-23T09:16:13.574Z,25
2017-02-23T09:17:22.904Z,25
2017-02-23T09:18:32.245Z,25
2017-02-23T09:19:41.569Z,25
2017-02-23T09:20:50.955Z,20
2017-02-23T09:22:00.280Z,25
2017-02-23T09:23:10.482Z,20
2017-02-23T09:24:19.810Z,25
2017-02-23T09:25:29.576Z,25
2017-02-23T09:26:38.940Z,25
2017-02-23T09:27:48.716Z,25
2017-02-23T09:28:58.469Z,20
2017-02-23T09:30:08.667Z,25
2017-02-23T09:31:17.993Z,25
2017-02-23T09:32:27.374Z,20
2017-02-23T09:33:36.691Z,25
2017-02-23T09:34:46.013Z,20
2017-02-23T09:35:55.320Z,20
2017-02-23T09:37:05.073Z,25
2017-02-23T09:38:15.336Z,20
2017-02-23T09:39:25.101Z,20
2017-02-23T09:40:34.414Z,20
2017-02-23T09:41:44.196Z,20
2017-02-23T09:42:53.521Z,20
2017-02-23T09:44:02.897Z,20
2017-02-23T09:45:12.677Z,20
2017-02-23T09:46:22.888Z,20
2017-02-23T09:47:32.213Z,20
2017-02-23T09:48:42.882Z,20
2017-02-23T09:49:52.259Z,20
2017-02-23T09:51:02.032Z,20
2017-02-23T09:52:11.389Z,25
2017-02-23T09:53:21.190Z,25
2017-02-23T09:54:31.399Z,30
2017-02-23T09:55:41.206Z,30
2017-02-23T09:56:50.551Z,30
2017-02-23T09:57:59.884Z,30
2017-02-23T09:59:09.210Z,25
2017-02-23T10:00:18.538Z,30
2017-02-23T10:01:27.923Z,30
2017-02-23T10:02:37.695Z,30
2017-02-23T10:03:47.444Z,30
2017-02-23T10:04:57.225Z,30
2017-02-23T10:06:07.024Z,35
2017-02-23T10:07:16.937Z,30
2017-02-23T10:08:27.578Z,35
2017-02-23T10:09:36.887Z,35
2017-02-23T10:10:46.201Z,30
2017-02-23T10:11:56.406Z,30
2017-02-23T10:13:06.242Z,35
2017-02-23T10:14:15.996Z,35
2017-02-23T10:15:25.762Z,40
2017-02-23T10:16:35.086Z,35
2017-02-23T10:17:44.866Z,30
2017-02-23T10:18:54.689Z,30
2017-02-23T10:20:04.013Z,35
2017-02-23T10:21:13.334Z,35
2017-02-23T10:22:22.656Z,35
2017-02-23T10:23:32.421Z,40
2017-02-23T10:24:42.702Z,30
2017-02-23T10:25:52.063Z,35
2017-02-23T10:27:01.829Z,25
2017-02-23T10:28:11.604Z,30
2017-02-23T10:29:21.811Z,30
2017-02-23T10:30:31.200Z,25
2017-02-23T10:31:40.953Z,30
2017-02-23T10:32:50.263Z,35
2017-02-23T10:34:00.492Z,35
2017-02-23T10:35:09.808Z,35
2017-02-23T10:36:19.174Z,30
2017-02-23T10:37:28.503Z,30
2017-02-23T10:38:37.820Z,30
2017-02-23T10:39:48.029Z,25
2017-02-23T10:40:57.793Z,35
2017-02-23T10:42:07.608Z,35
2017-02-23T10:43:16.921Z,30
2017-02-23T10:44:27.117Z,30
2017-02-23T10:45:36.431Z,30
2017-02-23T10:46:45.792Z,30
2017-02-23T10:47:55.164Z,35
2017-02-23T10:49:04.922Z,35
2017-02-23T10:50:14.271Z,35
2017-02-23T10:51:23.593Z,30
2017-02-23T10:52:33.809Z,50
2017-02-23T10:53:43.191Z,50
2017-02-23T10:54:52.508Z,60
2017-02-23T10:56:01.834Z,60
2017-02-23T10:57:11.595Z,70
2017-02-23T10:58:20.920Z,65
2017-02-23T10:59:30.277Z,75
2017-02-23T11:00:40.495Z,65
2017-02-23T11:01:50.252Z,60
2017-02-23T11:02:59.605Z,85
2017-02-23T11:04:08.938Z,80
2017-02-23T11:05:18.307Z,70
2017-02-23T11:06:27.652Z,55
2017-02-23T11:07:36.993Z,70
2017-02-23T11:08:46.769Z,95
2017-02-23T11:09:56.120Z,65
2017-02-23T11:11:05.509Z,65
2017-02-23T11:12:14.842Z,65
2017-02-23T11:13:24.179Z,50
2017-02-23T11:14:33.944Z,55
2017-02-23T11:15:43.721Z,40
2017-02-23T11:16:53.099Z,55
2017-02-23T11:18:02.420Z,60
2017-02-23T11:19:12.178Z,50
2017-02-23T11:20:21.933Z,75
2017-02-23T11:21:31.706Z,65
2017-02-23T11:22:41.073Z,70
2017-02-23T11:23:50.846Z,65
2017-02-23T11:25:00.175Z,60
2017-02-23T11:26:10.384Z,55
2017-02-23T11:27:20.149Z,60
2017-02-23T11:28:29.553Z,45
2017-02-23T11:29:38.908Z,40
2017-02-23T11:30:48.228Z,50
2017-02-23T11:31:57.993Z,55
2017-02-23T11:33:07.783Z,40
2017-02-23T11:34:17.172Z,45
2017-02-23T11:35:26.485Z,45
2017-02-23T11:36:36.271Z,60
2017-02-23T11:37:46.039Z,55
2017-02-23T11:38:55.361Z,50
2017-02-23T11:40:05.176Z,40
2017-02-23T11:41:14.951Z,55
2017-02-23T11:42:24.708Z,60
2017-02-23T11:43:34.041Z,55
2017-02-23T11:44:44.682Z,50
2017-02-23T11:45:54.500Z,65
2017-02-23T11:47:04.280Z,65
2017-02-23T11:48:14.065Z,75
2017-02-23T11:49:23.831Z,70
2017-02-23T11:50:33.608Z,70
2017-02-23T11:51:42.973Z,60
2017-02-23T11:52:52.302Z,80
2017-02-23T11:54:01.628Z,65
2017-02-23T11:55:10.963Z,55
2017-02-23T11:56:20.721Z,45
2017-02-23T11:57:30.095Z,45
2017-02-23T11:58:39.418Z,40
2017-02-23T11:59:49.189Z,40
2017-02-23T12:00:58.507Z,35
2017-02-23T12:02:07.830Z,60
2017-02-23T12:03:17.633Z,55
2017-02-23T12:04:26.954Z,55
2017-02-23T12:05:36.727Z,55
2017-02-23T12:06:46.088Z,65
2017-02-23T12:07:55.893Z,50
2017-02-23T12:09:05.274Z,40
2017-02-23T12:10:15.511Z,35
2017-02-23T12:11:24.886Z,40
2017-02-23T12:12:35.110Z,65
2017-02-23T12:13:44.426Z,65
2017-02-23T12:14:53.799Z,85
2017-02-23T12:16:03.557Z,75
2017-02-23T12:17:12.890Z,85
2017-02-23T12:18:22.219Z,80
2017-02-23T12:19:31.963Z,60
2017-02-23T12:20:41.334Z,70
2017-02-23T12:21:51.123Z,70
2017-02-23T12:23:00.886Z,65
2017-02-23T12:24:11.987Z,70
2017-02-23T12:25:21.753Z,60
2017-02-23T12:26:32.006Z,65
2017-02-23T12:27:41.767Z,45
2017-02-23T12:28:51.537Z,55
2017-02-23T12:30:00.854Z,55
2017-02-23T12:31:10.624Z,65
2017-02-23T12:32:20.001Z,55
2017-02-23T12:33:29.769Z,65
2017-02-23T12:34:39.971Z,65
2017-02-23T12:35:49.309Z,75
2017-02-23T12:36:58.634Z,60
2017-02-23T12:38:08.041Z,65
2017-02-23T12:39:17.364Z,55
2017-02-23T12:40:26.709Z,50
2017-02-23T12:41:36.042Z,45
2017-02-23T12:42:45.355Z,45
2017-02-23T12:43:54.872Z,30
2017-02-23T12:45:05.077Z,55
2017-02-23T12:46:14.383Z,70
2017-02-23T12:47:23.713Z,75
2017-02-23T12:48:33.481Z,75
2017-02-23T12:49:43.338Z,60
2017-02-23T12:50:52.669Z,60
2017-02-23T12:52:02.020Z,45
2017-02-23T12:53:11.341Z,30
2017-02-23T12:54:21.102Z,30
2017-02-23T12:55:30.464Z,30
2017-02-23T12:56:40.229Z,40
2017-02-23T12:57:50.438Z,40
2017-02-23T12:58:59.771Z,30
2017-02-23T13:00:09.556Z,40
2017-02-23T13:01:18.932Z,30
2017-02-23T13:02:28.718Z,20
2017-02-23T13:03:38.932Z,25
2017-02-23T13:04:48.245Z,20
2017-02-23T13:05:57.606Z,20
2017-02-23T13:07:06.975Z,30
2017-02-23T13:08:16.753Z,30
2017-02-23T13:09:26.517Z,50
2017-02-23T13:10:36.301Z,50
2017-02-23T13:11:46.942Z,45
2017-02-23T13:12:56.317Z,60
2017-02-23T13:14:05.642Z,65
2017-02-23T13:15:15.863Z,60
2017-02-23T13:16:25.212Z,70
2017-02-23T13:17:34.529Z,80
2017-02-23T13:18:43.901Z,55
2017-02-23T13:19:53.216Z,40
2017-02-23T13:21:03.002Z,45
2017-02-23T13:22:12.321Z,40
2017-02-23T13:23:21.635Z,30
2017-02-23T13:24:31.024Z,20
2017-02-23T13:25:40.790Z,25
2017-02-23T13:26:51.011Z,50
2017-02-23T13:28:01.217Z,35
2017-02-23T13:29:10.537Z,40
2017-02-23T13:30:20.311Z,40
2017-02-23T13:31:29.656Z,35
2017-02-23T13:32:39.429Z,25
2017-02-23T13:33:48.734Z,35
2017-02-23T13:34:58.068Z,35
2017-02-23T13:36:07.487Z,30
2017-02-23T13:37:17.722Z,30
2017-02-23T13:38:27.491Z,40
2017-02-23T13:39:37.267Z,35
2017-02-23T13:40:47.905Z,25
2017-02-23T13:41:57.289Z,15
2017-02-23T13:43:07.935Z,15
2017-02-23T13:44:17.258Z,15
2017-02-23T13:45:26.570Z,20
2017-02-23T13:46:38.842Z,25
2017-02-23T13:47:49.487Z,40
2017-02-23T13:48:59.886Z,40
2017-02-23T13:50:09.729Z,55
2017-02-23T13:51:20.955Z,65
2017-02-23T13:52:32.396Z,45
2017-02-23T13:53:43.870Z,55
2017-02-23T13:54:55.303Z,60
2017-02-23T13:56:06.748Z,60
2017-02-23T13:57:18.166Z,70
2017-02-23T13:58:29.260Z,65
2017-02-23T13:59:40.077Z,75
2017-02-23T14:00:50.747Z,55
2017-02-23T14:02:01.787Z,50
2017-02-23T14:03:12.341Z,50
2017-02-23T14:04:21.930Z,60
2017-02-23T14:05:31.323Z,55
2017-02-23T14:06:41.884Z,60
2017-02-23T14:07:52.502Z,50
2017-02-23T14:09:02.455Z,30
2017-02-23T14:10:13.459Z,30
2017-02-23T14:11:24.512Z,25
2017-02-23T14:12:35.973Z,40
2017-02-23T14:13:46.974Z,40
2017-02-23T14:14:58.415Z,50
2017-02-23T14:16:09.841Z,45
2017-02-23T14:17:20.938Z,45
2017-02-23T14:18:32.392Z,40
2017-02-23T14:19:43.400Z,35
2017-02-23T14:20:54.838Z,45
2017-02-23T14:22:06.283Z,70
2017-02-23T14:23:17.772Z,55
2017-02-23T14:24:29.197Z,30
2017-02-23T14:25:40.639Z,40
2017-02-23T14:26:52.051Z,45
2017-02-23T14:28:03.473Z,50
2017-02-23T14:29:14.957Z,30
2017-02-23T14:30:25.939Z,35
2017-02-23T14:31:37.392Z,25
2017-02-23T14:32:48.822Z,25
2017-02-23T14:34:00.258Z,25
2017-02-23T14:35:11.727Z,30
2017-02-23T14:36:23.153Z,35
2017-02-23T14:37:34.606Z,20
2017-02-23T14:38:46.023Z,10
2017-02-23T14:39:57.029Z,10
2017-02-23T14:41:08.494Z,10
2017-02-23T14:42:19.923Z,15
2017-02-23T14:43:31.344Z,15
2017-02-23T14:44:42.797Z,15
2017-02-23T14:45:54.210Z,20
2017-02-23T14:47:05.696Z,15
2017-02-23T14:48:17.137Z,20
2017-02-23T14:49:28.558Z,15
2017-02-23T14:50:41.483Z,15
2017-02-23T14:51:52.620Z,10
2017-02-23T14:53:04.258Z,25
2017-02-23T14:54:15.479Z,20
2017-02-23T14:55:26.333Z,15
2017-02-23T14:56:37.209Z,20
2017-02-23T14:57:48.727Z,25
2017-02-23T14:58:59.348Z,25
2017-02-23T15:00:10.801Z,20
2017-02-23T15:01:21.790Z,30
2017-02-23T15:02:33.219Z,30
2017-02-23T15:03:44.404Z,45
2017-02-23T15:04:55.937Z,40
2017-02-23T15:06:07.182Z,50
2017-02-23T15:07:18.164Z,45
2017-02-23T15:08:28.814Z,45
2017-02-23T15:09:39.857Z,40
2017-02-23T15:10:50.471Z,45
2017-02-23T15:12:01.901Z,35
2017-02-23T15:13:13.322Z,35
2017-02-23T15:14:24.611Z,30
2017-02-23T15:15:36.024Z,30
2017-02-23T15:16:47.661Z,30
2017-02-23T15:17:58.877Z,35
2017-02-23T15:19:11.008Z,30
2017-02-23T15:20:22.008Z,35
2017-02-23T15:21:33.306Z,30
2017-02-23T15:22:44.590Z,20
2017-02-23T15:23:55.608Z,20
2017-02-23T15:25:07.045Z,20
2017-02-23T15:26:18.470Z,15
2017-02-23T15:27:30.031Z,15
2017-02-23T15:28:41.081Z,10
2017-02-23T15:29:52.674Z,10
2017-02-23T15:31:03.678Z,5
2017-02-23T15:32:14.712Z,10
2017-02-23T15:33:26.142Z,15
2017-02-23T15:34:36.738Z,15
2017-02-23T15:35:48.167Z,10
2017-02-23T15:36:59.449Z,10
2017-02-23T15:38:10.446Z,10
2017-02-23T15:39:22.012Z,10
2017-02-23T15:40:33.332Z,15
2017-02-23T15:41:44.334Z,15
2017-02-23T15:42:55.802Z,20
2017-02-23T15:44:06.784Z,30
2017-02-23T15:45:18.085Z,15
2017-02-23T15:46:29.554Z,20
2017-02-23T15:47:40.492Z,20
2017-02-23T15:48:51.912Z,10
2017-02-23T15:50:03.326Z,10
2017-02-23T15:51:14.765Z,10
2017-02-23T15:52:24.142Z,15
2017-02-23T15:53:33.626Z,20
2017-02-23T15:54:43.399Z,20
2017-02-23T15:55:53.153Z,20
2017-02-23T15:57:02.482Z,30
2017-02-23T15:58:12.290Z,20
2017-02-23T15:59:21.620Z,15
2017-02-23T16:00:31.417Z,10
2017-02-23T16:01:41.189Z,10
2017-02-23T16:02:52.296Z,10
2017-02-23T16:04:02.127Z,10
2017-02-23T16:05:12.389Z,10
2017-02-23T16:06:22.159Z,10
2017-02-23T16:07:31.920Z,10
2017-02-23T16:08:41.457Z,10
2017-02-23T16:09:51.921Z,10
2017-02-23T16:11:02.679Z,5
2017-02-23T16:12:12.556Z,10
2017-02-23T16:13:22.326Z,5
2017-02-23T16:14:31.884Z,5
2017-02-23T16:15:41.912Z,5
2017-02-23T16:16:51.717Z,10
2017-02-23T16:18:01.515Z,5
2017-02-23T16:19:11.516Z,5
2017-02-23T16:20:21.892Z,5
2017-02-23T16:21:32.037Z,5
2017-02-23T16:22:42.912Z,5
2017-02-23T16:23:53.623Z,5
2017-02-23T16:25:03.702Z,5
2017-02-23T16:26:13.042Z,5
2017-02-23T16:27:22.897Z,5
2017-02-23T16:28:32.218Z,5
2017-02-23T16:29:41.993Z,5
2017-02-23T16:30:51.759Z,5
2017-02-23T16:32:01.085Z,5
2017-02-23T16:33:10.902Z,5
2017-02-23T16:34:20.678Z,5
2017-02-23T16:35:31.577Z,0
2017-02-23T16:36:41.469Z,0
2017-02-23T16:37:51.488Z,0
2017-02-23T16:39:01.772Z,0
2017-02-23T16:40:11.564Z,0
2017-02-23T16:41:22.067Z,0
2017-02-23T16:42:31.707Z,0
2017-02-23T16:43:41.130Z,0
2017-02-23T16:44:50.947Z,0
2017-02-23T16:46:00.284Z,0
2017-02-23T16:47:09.740Z,0
2017-02-23T16:48:20.458Z,0
2017-02-23T16:49:29.958Z,0
2017-02-23T16:50:39.897Z,0
2017-02-23T16:51:49.681Z,0
2017-02-23T16:53:00.516Z,0
2017-02-23T16:54:11.599Z,0